Time;durP1;ratioP1;P1;durP2;ratioP2;P2;SDS_P1;SDS_P2;PMS_P1;PMS_P2;Temp;Humidity;BMP_temperature;BMP_pressure;BME280_temperature;BME280_humidity;BME280_pressure;Samples;Min_cycle;Max_cycle;Signal;HPM_P1;HPM_P2
2021/11/07 00:02:55;;;;;;;22.17;18.47;;;7.90;46.60;;;;;;10336808;28;20243;-70
2021/11/07 00:08:13;;;;;;;19.77;17.60;;;8.00;46.80;;;;;;10333806;28;20237;-70
2021/11/07 00:13:19;;;;;;;20.70;18.50;;;8.00;46.60;;;;;;10333997;28;20225;-70
2021/11/07 00:18:28;;;;;;;21.07;18.87;;;8.00;46.50;;;;;;10341085;28;20746;-70
2021/11/07 00:28:54;;;;;;;21.60;19.30;;;8.00;46.70;;;;;;10341804;28;20241;-70
2021/11/07 00:39:25;;;;;;;23.03;20.60;;;8.20;47.20;;;;;;10343143;28;20226;-70
2021/11/07 00:44:36;;;;;;;23.93;21.33;;;8.20;46.90;;;;;;10342093;28;20249;-70
2021/11/07 00:49:43;;;;;;;26.40;21.37;;;8.20;46.80;;;;;;10337036;28;20218;-70
2021/11/07 00:54:53;;;;;;;25.53;21.70;;;8.30;47.10;;;;;;10342934;28;20241;-70
2021/11/07 00:59:59;;;;;;;26.53;22.03;;;8.30;47.00;;;;;;10339748;28;20226;-70
2021/11/07 01:05:10;;;;;;;28.40;23.03;;;8.30;46.80;;;;;;10341598;28;20226;-70
2021/11/07 01:10:13;;;;;;;26.83;23.20;;;8.30;47.30;;;;;;10338102;28;20588;-70
2021/11/07 01:15:17;;;;;;;25.37;22.13;;;8.30;46.90;;;;;;10332073;28;20245;-70
2021/11/07 01:20:25;;;;;;;28.33;23.27;;;8.30;46.90;;;;;;10344293;28;20222;-70
2021/11/07 01:25:32;;;;;;;26.70;21.87;;;8.30;47.20;;;;;;10341860;28;20238;-70
2021/11/07 01:30:39;;;;;;;27.97;22.97;;;8.30;47.00;;;;;;10341457;28;20230;-70
2021/11/07 01:35:47;;;;;;;25.50;22.43;;;8.30;47.20;;;;;;10337130;28;20723;-70
2021/11/07 01:41:00;;;;;;;28.70;23.60;;;8.30;47.30;;;;;;10342483;28;20228;-70
2021/11/07 01:46:10;;;;;;;27.87;23.97;;;8.30;47.30;;;;;;10346789;28;20223;-70
2021/11/07 01:51:15;;;;;;;31.17;25.87;;;8.30;47.20;;;;;;10348923;28;21007;-70
2021/11/07 01:56:19;;;;;;;29.60;25.60;;;8.30;47.20;;;;;;10346974;28;20238;-70
2021/11/07 02:01:24;;;;;;;28.83;25.67;;;8.30;47.10;;;;;;10343222;28;20749;-70
2021/11/07 02:06:29;;;;;;;29.40;24.70;;;8.30;47.50;;;;;;10339845;28;20230;-71
2021/11/07 02:11:32;;;;;;;30.57;25.07;;;8.20;47.50;;;;;;10348275;28;20317;-71
2021/11/07 02:16:36;;;;;;;27.33;23.10;;;8.20;47.40;;;;;;10346384;28;20234;-70
2021/11/07 02:21:41;;;;;;;24.30;21.27;;;8.20;47.60;;;;;;10347180;28;20301;-70
2021/11/07 02:26:45;;;;;;;27.67;22.97;;;8.20;47.80;;;;;;10346466;28;20729;-70
2021/11/07 02:31:48;;;;;;;25.53;22.27;;;8.30;47.60;;;;;;10340951;28;20316;-71
2021/11/07 02:36:53;;;;;;;27.00;22.43;;;8.30;47.40;;;;;;10345950;28;20623;-70
2021/11/07 02:41:56;;;;;;;27.17;23.10;;;8.40;47.50;;;;;;10347751;28;20235;-70
2021/11/07 02:47:00;;;;;;;24.00;21.40;;;8.40;47.30;;;;;;10341030;28;20231;-70
2021/11/07 02:52:08;;;;;;;24.00;21.37;;;8.30;47.30;;;;;;10347069;28;20254;-70
2021/11/07 02:57:18;;;;;;;25.37;21.17;;;8.40;47.40;;;;;;10339150;28;20234;-70
2021/11/07 03:02:21;;;;;;;25.93;20.60;;;8.40;47.50;;;;;;10348537;28;20234;-71
2021/11/07 03:07:26;;;;;;;26.27;22.20;;;8.40;47.40;;;;;;10346761;28;20249;-70
2021/11/07 03:12:29;;;;;;;23.60;21.10;;;8.40;47.30;;;;;;10350342;28;20313;-70
2021/11/07 03:17:32;;;;;;;23.83;20.93;;;8.50;47.20;;;;;;10342826;28;20235;-70
2021/11/07 03:22:37;;;;;;;24.23;21.33;;;8.50;46.90;;;;;;10346627;28;20235;-70
2021/11/07 03:27:43;;;;;;;23.23;20.73;;;8.50;46.90;;;;;;10342108;28;20253;-70
2021/11/07 03:32:48;;;;;;;24.83;21.23;;;8.50;46.90;;;;;;10342142;28;20218;-70
2021/11/07 03:37:56;;;;;;;25.73;22.20;;;8.50;47.00;;;;;;10341851;28;20226;-70
2021/11/07 03:43:00;;;;;;;24.43;21.50;;;8.40;46.90;;;;;;10338310;28;20236;-70
2021/11/07 03:48:04;;;;;;;25.20;22.00;;;8.40;46.90;;;;;;10343398;28;20235;-70
2021/11/07 03:53:09;;;;;;;26.17;22.10;;;8.40;46.80;;;;;;10335946;28;20594;-70
2021/11/07 03:58:12;;;;;;;24.63;21.80;;;8.30;47.00;;;;;;10334693;28;20590;-70
2021/11/07 04:03:16;;;;;;;24.97;22.30;;;8.20;47.10;;;;;;10342309;28;20238;-71
2021/11/07 04:08:20;;;;;;;25.97;21.97;;;8.20;47.20;;;;;;10338566;28;20680;-70
2021/11/07 04:13:24;;;;;;;24.07;21.43;;;8.20;47.30;;;;;;10343934;28;20234;-70
2021/11/07 04:18:27;;;;;;;24.03;21.27;;;8.20;47.30;;;;;;10345589;28;20264;-70
2021/11/07 04:23:32;;;;;;;23.60;20.27;;;8.20;47.10;;;;;;10340692;28;20223;-70
2021/11/07 04:28:35;;;;;;;22.87;19.33;;;8.30;47.00;;;;;;10345034;28;20223;-70
2021/11/07 04:33:39;;;;;;;22.23;19.87;;;8.20;47.00;;;;;;10339301;28;20593;-70
2021/11/07 04:38:43;;;;;;;21.53;18.43;;;8.30;46.90;;;;;;10339813;28;20235;-70
2021/11/07 04:43:48;;;;;;;23.17;19.30;;;8.20;47.00;;;;;;10337911;28;20219;-70
2021/11/07 04:48:51;;;;;;;20.93;18.57;;;8.20;46.90;;;;;;10335588;28;20308;-70
2021/11/07 04:53:56;;;;;;;22.40;20.00;;;8.20;46.90;;;;;;10338473;28;20226;-70
2021/11/07 04:58:59;;;;;;;21.77;19.47;;;8.20;47.00;;;;;;10341052;28;20234;-70
2021/11/07 05:04:03;;;;;;;22.87;20.40;;;8.20;46.90;;;;;;10343828;28;20229;-71
2021/11/07 05:09:07;;;;;;;22.90;20.17;;;8.20;46.90;;;;;;10342278;28;20706;-70
2021/11/07 05:14:10;;;;;;;22.13;19.83;;;8.20;46.80;;;;;;10339141;28;20257;-70
2021/11/07 05:19:14;;;;;;;24.37;19.90;;;8.20;46.70;;;;;;10343825;28;20219;-71
2021/11/07 05:24:18;;;;;;;21.13;18.83;;;8.20;46.80;;;;;;10346228;28;20611;-70
2021/11/07 05:29:21;;;;;;;19.80;17.83;;;8.20;46.80;;;;;;10351708;28;20974;-70
2021/11/07 05:34:24;;;;;;;21.03;18.93;;;8.20;46.60;;;;;;10345538;28;20289;-70
2021/11/07 05:39:29;;;;;;;20.30;18.03;;;8.20;46.50;;;;;;10347630;28;20690;-70
2021/11/07 05:44:34;;;;;;;19.87;17.87;;;8.10;46.30;;;;;;10345447;28;20271;-70
2021/11/07 05:49:37;;;;;;;19.80;17.80;;;8.10;46.50;;;;;;10345241;28;20222;-70
2021/11/07 05:54:42;;;;;;;19.13;17.17;;;8.00;46.60;;;;;;10343624;28;20229;-71
2021/11/07 05:59:45;;;;;;;19.03;16.93;;;7.90;46.40;;;;;;10346671;28;20694;-71
2021/11/07 06:04:48;;;;;;;17.50;15.77;;;7.90;46.30;;;;;;10343671;28;20253;-70
2021/11/07 06:09:53;;;;;;;17.07;15.40;;;7.80;46.50;;;;;;10346714;28;20222;-70
2021/11/07 06:14:56;;;;;;;18.40;16.50;;;7.80;46.60;;;;;;10341794;28;20222;-70
2021/11/07 06:20:00;;;;;;;18.00;16.23;;;7.80;46.50;;;;;;10343069;28;20234;-71
2021/11/07 06:25:05;;;;;;;17.80;16.07;;;7.80;46.50;;;;;;10345179;28;20227;-70
2021/11/07 06:30:10;;;;;;;17.43;15.73;;;7.80;46.50;;;;;;10341391;28;20234;-70
2021/11/07 06:35:15;;;;;;;18.20;16.37;;;7.90;46.50;;;;;;10345640;28;20774;-71
2021/11/07 06:40:19;;;;;;;17.83;16.03;;;7.90;46.40;;;;;;10342688;28;20226;-71
2021/11/07 06:45:23;;;;;;;17.40;15.67;;;8.00;46.50;;;;;;10343830;28;20238;-70
2021/11/07 06:50:26;;;;;;;16.70;15.07;;;7.90;46.30;;;;;;10346758;28;20233;-70
2021/11/07 06:55:31;;;;;;;17.27;15.50;;;7.90;46.20;;;;;;10342310;28;20238;-70
2021/11/07 07:00:35;;;;;;;16.87;15.17;;;7.90;46.40;;;;;;10346204;28;20223;-70
2021/11/07 07:05:38;;;;;;;19.07;17.27;;;7.80;47.00;;;;;;10336248;28;20305;-70
2021/11/07 07:10:53;;;;;;;17.87;16.10;;;7.80;46.50;;;;;;10344833;28;20231;-70
2021/11/07 07:16:06;;;;;;;17.83;16.10;;;7.70;46.50;;;;;;10344130;28;20232;-70
2021/11/07 07:21:16;;;;;;;18.17;16.40;;;7.80;46.70;;;;;;10343448;28;20222;-70
2021/11/07 07:31:53;;;;;;;18.10;16.23;;;7.80;46.70;;;;;;10339110;28;20226;-71
2021/11/07 07:36:56;;;;;;;16.67;15.07;;;7.80;46.50;;;;;;10342783;28;20604;-71
2021/11/07 07:42:01;;;;;;;16.73;15.03;;;7.90;46.40;;;;;;10346621;28;20234;-70
2021/11/07 07:47:04;;;;;;;16.97;15.37;;;7.90;46.50;;;;;;10340223;28;20230;-71
2021/11/07 07:52:07;;;;;;;17.33;15.53;;;7.90;46.50;;;;;;10339934;28;20230;-71
2021/11/07 07:57:12;;;;;;;16.70;15.00;;;7.90;46.40;;;;;;10341059;28;20234;-73
2021/11/07 08:02:17;;;;;;;16.77;15.07;;;7.90;46.40;;;;;;10344047;28;20241;-70
2021/11/07 08:07:20;;;;;;;17.77;15.97;;;7.90;46.50;;;;;;10331950;28;20238;-71
2021/11/07 08:12:25;;;;;;;17.47;15.77;;;7.90;46.60;;;;;;10340728;28;20233;-71
2021/11/07 08:17:28;;;;;;;16.43;14.83;;;7.90;46.70;;;;;;10341195;28;20242;-70
2021/11/07 08:22:32;;;;;;;17.63;15.93;;;8.00;47.00;;;;;;10334211;28;20235;-70
2021/11/07 08:27:36;;;;;;;17.30;15.60;;;8.00;47.00;;;;;;10337368;28;20603;-71
2021/11/07 08:32:40;;;;;;;17.60;15.80;;;8.10;46.90;;;;;;10340026;28;20222;-71
2021/11/07 08:37:47;;;;;;;16.60;15.03;;;8.20;46.80;;;;;;10341394;28;20226;-70
2021/11/07 08:42:56;;;;;;;17.50;15.80;;;8.20;46.90;;;;;;10338574;28;20233;-70
2021/11/07 09:04:18;;;;;;;16.80;15.20;;;8.60;47.50;;;;;;10349254;28;20229;-71
2021/11/07 09:09:23;;;;;;;17.20;15.53;;;8.80;47.70;;;;;;10344276;28;20244;-71
2021/11/07 09:14:30;;;;;;;16.17;14.47;;;9.00;47.60;;;;;;10347891;28;20253;-72
2021/11/07 09:19:36;;;;;;;17.27;15.57;;;9.20;47.30;;;;;;10348121;28;20305;-71
2021/11/07 09:24:44;;;;;;;16.40;14.80;;;9.30;47.50;;;;;;10344922;28;20318;-71
2021/11/07 09:29:56;;;;;;;16.23;14.70;;;9.50;47.30;;;;;;10346345;28;20748;-71
2021/11/07 09:35:11;;;;;;;16.93;15.33;;;9.70;47.20;;;;;;10346620;28;20227;-71
2021/11/07 09:40:17;;;;;;;14.27;12.87;;;9.90;47.40;;;;;;10344308;28;20575;-71
2021/11/07 09:45:31;;;;;;;15.23;13.77;;;10.10;46.00;;;;;;10345230;28;20254;-71
2021/11/07 09:50:34;;;;;;;14.57;13.20;;;10.30;45.50;;;;;;10345641;28;20634;-71
2021/11/07 09:55:38;;;;;;;15.23;13.67;;;10.40;45.60;;;;;;10332817;28;20238;-71
2021/11/07 10:00:48;;;;;;;14.37;13.07;;;10.50;45.20;;;;;;10335461;28;20226;-71
2021/11/07 10:05:54;;;;;;;14.30;12.97;;;10.60;44.00;;;;;;10335112;28;20720;-71
2021/11/07 10:11:06;;;;;;;15.83;14.00;;;10.60;44.60;;;;;;10334932;28;21181;-71
2021/11/07 10:16:13;;;;;;;13.63;12.30;;;10.70;43.60;;;;;;10339244;28;20231;-70
2021/11/07 10:21:21;;;;;;;17.20;14.70;;;10.70;44.00;;;;;;10347655;28;20226;-71
2021/11/07 10:26:28;;;;;;;15.73;14.23;;;10.70;44.00;;;;;;10346559;28;20612;-71
2021/11/07 10:31:40;;;;;;;14.93;13.43;;;10.70;44.00;;;;;;10343934;28;20223;-73
2021/11/07 10:42:25;;;;;;;15.27;13.77;;;10.70;43.60;;;;;;10339518;28;20222;-71
2021/11/07 10:48:03;;;;;;;14.37;13.07;;;10.70;44.50;;;;;;10342084;28;21017;-71
2021/11/07 10:53:13;;;;;;;13.50;12.27;;;10.80;44.10;;;;;;10340746;28;20223;-71
2021/11/07 10:58:24;;;;;;;13.00;11.80;;;11.00;45.00;;;;;;10339753;28;20231;-71
2021/11/07 11:03:29;;;;;;;13.83;12.57;;;11.20;45.00;;;;;;10344745;28;20245;-71
2021/11/07 11:08:35;;;;;;;12.70;11.60;;;11.50;44.00;;;;;;10335783;28;20234;-71
2021/11/07 11:13:43;;;;;;;12.20;11.10;;;11.60;44.00;;;;;;10344132;28;20233;-71
2021/11/07 11:19:06;;;;;;;13.63;11.67;;;11.70;43.60;;;;;;10347905;28;20230;-72
2021/11/07 11:24:16;;;;;;;13.37;12.13;;;11.70;43.00;;;;;;10346948;28;20234;-73
2021/11/07 11:29:38;;;;;;;12.40;11.30;;;11.80;43.40;;;;;;10342246;28;20218;-72
2021/11/07 11:34:44;;;;;;;12.37;11.27;;;11.80;43.20;;;;;;10340376;28;20231;-71
2021/11/07 11:39:53;;;;;;;12.03;10.93;;;11.80;42.50;;;;;;10341238;28;20219;-72
2021/11/07 11:44:57;;;;;;;11.07;9.83;;;11.80;43.20;;;;;;10342307;28;20230;-71
2021/11/07 11:55:35;;;;;;;10.70;9.70;;;11.90;42.30;;;;;;10343021;28;20234;-71
2021/11/07 12:00:47;;;;;;;11.07;10.07;;;12.00;42.70;;;;;;10346935;28;20617;-71
2021/11/07 12:05:55;;;;;;;10.73;9.83;;;12.10;42.40;;;;;;10335268;28;20227;-71
2021/11/07 12:11:23;;;;;;;10.93;9.93;;;12.20;42.60;;;;;;10341206;28;20226;-71
2021/11/07 12:16:49;;;;;;;11.27;10.17;;;12.30;42.00;;;;;;10337103;28;20231;-71
2021/11/07 12:22:00;;;;;;;10.50;9.50;;;12.30;41.20;;;;;;10334837;28;21071;-72
2021/11/07 12:27:24;;;;;;;10.97;9.90;;;12.40;42.00;;;;;;10336783;28;20233;-71
2021/11/07 12:32:33;;;;;;;11.00;10.00;;;12.50;41.00;;;;;;10338363;28;20217;-72
2021/11/07 12:43:03;;;;;;;9.93;9.03;;;12.40;41.30;;;;;;10343463;28;20237;-71
2021/11/07 12:48:08;;;;;;;9.20;8.40;;;12.40;41.80;;;;;;10345607;28;20254;-71
2021/11/07 12:53:12;;;;;;;9.73;8.63;;;12.40;41.30;;;;;;10344113;28;20229;-72
2021/11/07 12:58:20;;;;;;;9.93;9.03;;;12.40;40.90;;;;;;10343376;28;20355;-72
2021/11/07 13:03:23;;;;;;;9.77;8.87;;;12.40;41.80;;;;;;10338703;28;20313;-72
2021/11/07 13:08:32;;;;;;;10.17;9.27;;;12.40;42.00;;;;;;10350593;28;20222;-71
2021/11/07 13:13:40;;;;;;;10.03;9.13;;;12.40;41.20;;;;;;10342584;28;20598;-72
2021/11/07 13:18:57;;;;;;;10.00;9.13;;;12.40;41.60;;;;;;10332554;28;20245;-71
2021/11/07 13:24:14;;;;;;;10.87;9.87;;;12.40;41.80;;;;;;10328312;28;20234;-71
2021/11/07 13:29:34;;;;;;;11.30;10.20;;;12.50;41.00;;;;;;10338344;28;20236;-71
2021/11/07 13:34:56;;;;;;;9.97;9.07;;;12.50;41.30;;;;;;10336207;28;20226;-74
2021/11/07 13:40:18;;;;;;;9.93;9.00;;;12.50;40.40;;;;;;10341469;28;20228;-74
2021/11/07 13:45:27;;;;;;;9.77;8.77;;;12.50;40.40;;;;;;10342848;28;20230;-74
2021/11/07 13:50:34;;;;;;;9.33;8.53;;;12.50;40.90;;;;;;10342018;28;21113;-72
2021/11/07 13:55:38;;;;;;;8.70;8.00;;;12.50;41.70;;;;;;10344086;28;20226;-71
2021/11/07 14:00:43;;;;;;;9.37;8.57;;;12.40;41.10;;;;;;10344324;28;20234;-71
2021/11/07 14:05:55;;;;;;;9.73;8.83;;;12.50;41.50;;;;;;10342615;28;20320;-71
2021/11/07 14:11:05;;;;;;;9.23;8.43;;;12.50;40.30;;;;;;10348046;28;20233;-71
2021/11/07 14:16:09;;;;;;;8.50;7.70;;;12.50;40.80;;;;;;10344188;28;20229;-71
2021/11/07 14:21:14;;;;;;;10.40;9.40;;;12.50;41.30;;;;;;10337087;28;20598;-71
2021/11/07 14:26:24;;;;;;;9.57;8.57;;;12.50;41.10;;;;;;10351462;28;20683;-71
2021/11/07 14:31:32;;;;;;;9.00;8.10;;;12.60;41.00;;;;;;10340466;28;20770;-71
2021/11/07 14:36:44;;;;;;;8.80;8.00;;;12.60;41.30;;;;;;10341966;28;20231;-71
2021/11/07 14:42:07;;;;;;;7.83;7.13;;;12.60;41.20;;;;;;10340632;28;20222;-71
2021/11/07 14:47:20;;;;;;;7.40;6.80;;;12.60;40.40;;;;;;10342494;28;20231;-70
2021/11/07 14:52:35;;;;;;;8.13;7.33;;;12.60;41.10;;;;;;10341472;28;20230;-71
2021/11/07 15:03:19;;;;;;;7.00;6.40;;;12.40;41.40;;;;;;10290235;28;20219;-73
2021/11/07 15:08:26;;;;;;;6.87;6.27;;;12.30;42.00;;;;;;10339100;28;20233;-73
2021/11/07 15:13:47;;;;;;;7.27;6.67;;;12.30;41.50;;;;;;10340057;28;20329;-73
2021/11/07 15:18:55;;;;;;;8.23;7.43;;;12.30;41.10;;;;;;10338531;28;20225;-73
2021/11/07 15:24:02;;;;;;;8.03;7.27;;;12.40;41.50;;;;;;10340062;28;20227;-73
2021/11/07 15:29:13;;;;;;;6.73;6.13;;;12.40;41.30;;;;;;10340866;28;20310;-73
2021/11/07 15:34:29;;;;;;;6.70;6.10;;;12.40;40.60;;;;;;10345909;28;20219;-71
2021/11/07 15:39:33;;;;;;;7.10;6.50;;;12.30;41.10;;;;;;10336656;28;20364;-72
2021/11/07 15:44:43;;;;;;;6.27;5.67;;;12.40;41.40;;;;;;10342598;28;20246;-71
2021/11/07 15:49:51;;;;;;;7.07;6.47;;;12.40;40.90;;;;;;10344488;28;20226;-72
2021/11/07 15:54:59;;;;;;;7.70;6.70;;;12.40;41.20;;;;;;10345385;28;20229;-72
2021/11/07 16:00:25;;;;;;;7.20;6.50;;;12.40;41.10;;;;;;10338561;28;20250;-71
2021/11/07 16:05:47;;;;;;;7.50;6.70;;;12.40;40.70;;;;;;10341980;28;20317;-71
2021/11/07 16:10:58;;;;;;;8.47;7.67;;;12.30;41.90;;;;;;10338324;28;20233;-71
2021/11/07 16:16:30;;;;;;;8.30;7.33;;;12.20;41.20;;;;;;10340850;28;20226;-72
2021/11/07 16:21:34;;;;;;;7.43;6.13;;;12.30;41.10;;;;;;10338730;28;20222;-69
2021/11/07 16:26:38;;;;;;;7.30;6.70;;;12.20;41.30;;;;;;10337394;28;20226;-71
2021/11/07 16:31:46;;;;;;;6.90;6.20;;;12.10;41.20;;;;;;10334949;28;20227;-72
2021/11/07 16:36:51;;;;;;;8.00;7.30;;;12.10;41.10;;;;;;10333772;28;20227;-71
2021/11/07 16:41:57;;;;;;;7.83;7.13;;;12.10;41.10;;;;;;10336258;28;20607;-72
2021/11/07 16:47:06;;;;;;;7.70;7.00;;;12.00;41.50;;;;;;10330902;28;20571;-71
2021/11/07 16:52:15;;;;;;;7.43;6.83;;;12.00;41.00;;;;;;10333702;28;20237;-72
2021/11/07 16:57:21;;;;;;;7.37;6.60;;;12.00;41.20;;;;;;10337649;28;20234;-71
2021/11/07 17:02:29;;;;;;;6.80;6.20;;;12.00;41.20;;;;;;10341094;28;20234;-71
2021/11/07 17:07:40;;;;;;;6.83;6.23;;;12.00;40.70;;;;;;10340816;28;20230;-72
2021/11/07 17:12:48;;;;;;;6.60;6.10;;;12.00;41.10;;;;;;10339389;28;20229;-72
2021/11/07 17:17:57;;;;;;;6.60;5.90;;;12.00;41.20;;;;;;10349576;28;20222;-71
2021/11/07 17:23:04;;;;;;;7.90;7.20;;;12.00;40.80;;;;;;10344727;28;20317;-71
2021/11/07 17:28:15;;;;;;;6.17;5.63;;;12.00;41.00;;;;;;10346925;28;20230;-71
2021/11/07 17:33:25;;;;;;;6.33;5.83;;;12.00;40.90;;;;;;10343667;28;20238;-72
2021/11/07 17:38:30;;;;;;;5.63;5.13;;;12.10;40.60;;;;;;10342371;28;20811;-71
2021/11/07 17:59:36;;;;;;;5.53;5.00;;;12.10;41.00;;;;;;10338001;28;20223;-71
2021/11/07 18:04:42;;;;;;;6.57;5.80;;;12.10;40.90;;;;;;10341510;28;20219;-71
2021/11/07 18:09:50;;;;;;;6.80;6.13;;;12.10;40.60;;;;;;10346059;28;20218;-71
2021/11/07 18:14:54;;;;;;;7.40;6.80;;;12.20;40.90;;;;;;10349209;28;20240;-71
2021/11/07 18:19:58;;;;;;;6.10;5.50;;;12.20;40.90;;;;;;10345984;28;20226;-71
2021/11/07 18:25:04;;;;;;;7.07;6.37;;;12.20;40.50;;;;;;10346646;28;20226;-72
2021/11/07 18:30:11;;;;;;;6.83;6.23;;;12.20;40.80;;;;;;10345239;28;20722;-72
2021/11/07 18:35:17;;;;;;;6.63;6.03;;;12.10;40.50;;;;;;10342112;28;20237;-71
2021/11/07 18:40:20;;;;;;;6.70;6.00;;;12.10;40.90;;;;;;10347076;28;20227;-71
2021/11/07 18:45:26;;;;;;;5.53;5.03;;;12.10;41.10;;;;;;10347216;28;20230;-71
2021/11/07 18:50:35;;;;;;;6.20;5.60;;;12.00;41.00;;;;;;10345488;28;20226;-71
2021/11/07 18:55:40;;;;;;;7.23;6.63;;;12.10;41.00;;;;;;10339325;28;20227;-71
2021/11/07 19:00:46;;;;;;;6.70;6.10;;;12.10;41.20;;;;;;10340662;28;20257;-71
2021/11/07 19:05:50;;;;;;;6.03;5.13;;;12.10;41.20;;;;;;10341919;28;20222;-71
2021/11/07 19:10:55;;;;;;;5.80;5.30;;;12.00;41.20;;;;;;10339826;28;20222;-71
2021/11/07 19:15:58;;;;;;;5.47;5.00;;;12.00;41.70;;;;;;10344678;28;20317;-71
2021/11/07 19:21:02;;;;;;;5.30;4.87;;;12.00;41.70;;;;;;10338074;28;20223;-71
2021/11/07 19:26:06;;;;;;;5.97;5.37;;;12.10;41.70;;;;;;10339022;28;20230;-72
2021/11/07 19:31:09;;;;;;;6.40;5.80;;;12.10;41.70;;;;;;10338319;28;20234;-71
2021/11/07 19:36:14;;;;;;;6.60;5.87;;;12.10;41.40;;;;;;10340492;28;20238;-71
2021/11/07 19:41:19;;;;;;;5.97;5.37;;;12.20;41.50;;;;;;10338288;28;20224;-72
2021/11/07 19:46:23;;;;;;;6.83;6.23;;;12.20;41.80;;;;;;10342266;28;20587;-71
2021/11/07 19:51:39;;;;;;;6.67;6.03;;;12.20;41.50;;;;;;10330876;28;20613;-71
2021/11/07 19:56:43;;;;;;;6.63;5.97;;;12.20;41.30;;;;;;10337914;28;20594;-71
2021/11/07 20:02:15;;;;;;;7.30;6.60;;;12.20;41.60;;;;;;10341977;28;20276;-71
2021/11/07 20:07:41;;;;;;;6.97;6.37;;;12.20;41.80;;;;;;10339231;28;20230;-70
2021/11/07 20:12:45;;;;;;;7.47;6.77;;;12.20;41.90;;;;;;10333844;28;20227;-70
2021/11/07 20:17:48;;;;;;;8.33;7.20;;;12.20;41.90;;;;;;10329298;28;20742;-71
2021/11/07 20:22:54;;;;;;;8.73;6.90;;;12.10;41.80;;;;;;10338044;28;21133;-71
2021/11/07 20:28:00;;;;;;;7.53;6.83;;;12.10;41.80;;;;;;10339559;28;20234;-71
2021/11/07 20:33:07;;;;;;;8.50;7.70;;;12.00;41.70;;;;;;10342173;28;20705;-71
2021/11/07 20:38:15;;;;;;;8.07;7.37;;;12.00;41.70;;;;;;10335912;28;20321;-71
2021/11/07 20:43:26;;;;;;;8.37;7.57;;;12.00;42.10;;;;;;10332630;28;20235;-71
2021/11/07 20:48:32;;;;;;;10.67;9.70;;;11.90;41.90;;;;;;10342416;28;20240;-71
2021/11/07 20:53:39;;;;;;;10.00;9.10;;;11.90;42.00;;;;;;10351037;28;20218;-70
2021/11/07 20:58:55;;;;;;;10.47;9.47;;;11.80;42.30;;;;;;10347693;28;20252;-71
2021/11/07 21:04:03;;;;;;;10.10;9.20;;;11.70;42.30;;;;;;10349316;28;20226;-71
2021/11/07 21:09:26;;;;;;;9.30;8.50;;;11.70;42.50;;;;;;10352278;28;20237;-71
2021/11/07 21:14:42;;;;;;;9.33;8.43;;;11.70;42.60;;;;;;10351572;28;20241;-71
2021/11/07 21:30:31;;;;;;;8.77;7.97;;;11.60;43.10;;;;;;10357071;28;20259;-71
2021/11/07 21:35:36;;;;;;;8.70;7.80;;;11.50;42.80;;;;;;10358303;28;21016;-71
2021/11/07 21:40:47;;;;;;;8.17;7.27;;;11.50;43.00;;;;;;10348495;28;20245;-71
2021/11/07 21:45:51;;;;;;;8.70;7.80;;;11.50;43.30;;;;;;10356287;28;20223;-70
2021/11/07 21:50:54;;;;;;;8.30;7.53;;;11.50;43.10;;;;;;10358332;28;20222;-71
2021/11/07 21:55:59;;;;;;;8.50;7.70;;;11.40;43.10;;;;;;10350807;28;20218;-70
2021/11/07 22:01:03;;;;;;;8.77;7.97;;;11.40;43.40;;;;;;10355097;28;20225;-71
2021/11/07 22:06:06;;;;;;;9.60;8.57;;;11.40;43.30;;;;;;10344928;28;20613;-71
2021/11/07 22:11:11;;;;;;;9.07;8.07;;;11.40;43.30;;;;;;10344498;28;20231;-71
2021/11/07 22:16:23;;;;;;;8.17;7.37;;;11.30;43.50;;;;;;10345439;28;20716;-70
2021/11/07 22:21:30;;;;;;;8.43;7.63;;;11.30;43.40;;;;;;10342734;28;20230;-71
2021/11/07 22:26:36;;;;;;;7.67;7.07;;;11.30;43.60;;;;;;10345965;28;20293;-70
2021/11/07 22:31:48;;;;;;;8.20;7.40;;;11.30;43.80;;;;;;10346921;28;20230;-71
2021/11/07 22:36:57;;;;;;;7.20;6.50;;;11.30;43.60;;;;;;10347102;28;20237;-71
2021/11/07 22:42:02;;;;;;;6.97;6.27;;;11.30;43.60;;;;;;10342838;28;20600;-71
2021/11/07 22:47:06;;;;;;;6.97;6.30;;;11.30;43.80;;;;;;10351219;28;20226;-70
2021/11/07 22:52:19;;;;;;;6.90;6.30;;;11.30;43.50;;;;;;10342190;28;20223;-71
2021/11/07 22:57:34;;;;;;;8.80;5.93;;;11.30;44.20;;;;;;10341082;28;20234;-71
2021/11/07 23:03:09;;;;;;;5.50;5.10;;;11.30;43.80;;;;;;10343614;28;20233;-71
2021/11/07 23:08:48;;;;;;;5.30;4.80;;;11.30;43.60;;;;;;10342171;28;20226;-70
2021/11/07 23:13:56;;;;;;;5.67;4.40;;;11.30;44.70;;;;;;10341707;28;20230;-70
2021/11/07 23:18:59;;;;;;;4.70;4.30;;;11.40;43.70;;;;;;10341294;28;20248;-70
2021/11/07 23:24:03;;;;;;;5.53;3.93;;;11.40;43.40;;;;;;10345351;28;20229;-70
2021/11/07 23:29:11;;;;;;;4.20;3.50;;;11.40;43.40;;;;;;10347909;28;20610;-70
2021/11/07 23:34:15;;;;;;;4.20;3.80;;;11.40;43.60;;;;;;10342005;28;20226;-71
2021/11/07 23:39:22;;;;;;;3.73;3.27;;;11.50;43.50;;;;;;10341757;28;20234;-70
2021/11/07 23:44:27;;;;;;;3.57;3.27;;;11.50;43.50;;;;;;10344867;28;20229;-70
2021/11/07 23:49:31;;;;;;;4.03;3.70;;;11.40;43.30;;;;;;10338274;28;20714;-70
2021/11/07 23:54:37;;;;;;;4.20;3.70;;;11.40;43.30;;;;;;10337206;28;20222;-71
2021/11/07 23:59:43;;;;;;;4.60;3.87;;;11.30;43.50;;;;;;10336963;28;20655;-70
